createdAt,value
2023-03-04T00:01:40.987Z,101164.00
2023-03-04T00:04:09.829Z,101161.02
2023-03-04T00:06:39.041Z,101158.16
2023-03-04T00:09:07.927Z,101154.27
2023-03-04T00:11:37.089Z,101155.34
2023-03-04T00:14:05.946Z,101149.94
2023-03-04T00:16:34.827Z,101148.30
2023-03-04T00:19:03.875Z,101149.15
2023-03-04T00:21:34.331Z,101147.90
2023-03-04T00:24:03.266Z,101146.47
2023-03-04T00:26:32.165Z,101145.55
2023-03-04T00:29:00.916Z,101137.11
2023-03-04T00:31:29.729Z,101135.87
2023-03-04T00:33:58.668Z,101128.23
2023-03-04T00:36:27.527Z,101130.01
2023-03-04T00:38:57.046Z,101127.66
2023-03-04T00:41:25.953Z,101127.20
2023-03-04T00:43:54.834Z,101126.09
2023-03-04T00:46:23.695Z,101122.23
2023-03-04T00:48:53.746Z,101119.00
2023-03-04T00:51:22.548Z,101114.27
2023-03-04T00:53:52.521Z,101113.46
2023-03-04T00:56:21.315Z,101110.83
2023-03-04T00:58:50.184Z,101108.68
2023-03-04T01:01:19.083Z,101104.96
2023-03-04T01:03:47.821Z,101102.96
2023-03-04T01:06:16.650Z,101096.88
2023-03-04T01:08:46.742Z,101094.19
2023-03-04T01:11:15.799Z,101094.92
2023-03-04T01:13:44.571Z,101092.40
2023-03-04T01:16:13.412Z,101091.36
2023-03-04T01:18:42.578Z,101089.71
2023-03-04T01:21:11.479Z,101089.25
2023-03-04T01:23:40.290Z,101086.05
2023-03-04T01:26:10.874Z,101087.82
2023-03-04T01:28:39.731Z,101078.80
2023-03-04T01:31:08.877Z,101077.64
2023-03-04T01:33:37.767Z,101077.35
2023-03-04T01:36:07.007Z,101074.79
2023-03-04T01:38:36.134Z,101070.23
2023-03-04T01:41:06.220Z,101063.98
2023-03-04T01:43:48.902Z,101062.67
2023-03-04T01:46:18.033Z,101058.30
2023-03-04T01:48:46.802Z,101059.36
2023-03-04T01:51:18.401Z,101054.79
2023-03-04T01:53:55.129Z,101055.33
2023-03-04T01:56:36.622Z,101052.13
2023-03-04T01:59:16.390Z,101047.52
2023-03-04T02:01:52.261Z,101049.92
2023-03-04T02:04:28.571Z,101044.70
2023-03-04T02:07:00.013Z,101042.54
2023-03-04T02:09:31.290Z,101040.86
2023-03-04T02:12:00.596Z,101036.48
2023-03-04T02:14:30.095Z,101029.02
2023-03-04T02:16:59.456Z,101026.14
2023-03-04T02:19:47.674Z,101025.64
2023-03-04T02:22:16.445Z,101026.86
2023-03-04T02:25:00.214Z,101024.81
2023-03-04T02:27:29.240Z,101021.95
2023-03-04T02:29:58.646Z,101020.94
2023-03-04T02:32:29.063Z,101019.23
2023-03-04T02:34:58.058Z,101017.20
2023-03-04T02:37:27.046Z,101019.25
2023-03-04T02:39:56.000Z,101016.20
2023-03-04T02:42:24.763Z,101010.54
2023-03-04T02:45:01.785Z,101007.64
2023-03-04T02:47:30.957Z,100999.98
2023-03-04T02:49:59.915Z,100995.52
2023-03-04T02:52:29.046Z,100991.08
2023-03-04T02:54:59.295Z,100986.65
2023-03-04T02:57:28.203Z,100984.93
2023-03-04T02:59:57.236Z,100979.98
2023-03-04T03:02:27.907Z,100970.27
2023-03-04T03:04:56.877Z,100973.02
2023-03-04T03:07:28.008Z,100965.70
2023-03-04T03:09:56.936Z,100964.35
2023-03-04T03:12:25.783Z,100968.60
2023-03-04T03:14:54.629Z,100963.14
2023-03-04T03:17:24.933Z,100954.12
2023-03-04T03:19:54.266Z,100951.72
2023-03-04T03:22:23.161Z,100951.36
2023-03-04T03:24:52.105Z,100950.33
2023-03-04T03:27:20.917Z,100944.84
2023-03-04T03:29:49.801Z,100940.61
2023-03-04T03:32:18.623Z,100936.52
2023-03-04T03:34:47.525Z,100932.78
2023-03-04T03:37:16.575Z,100927.67
2023-03-04T03:39:45.372Z,100925.31
2023-03-04T03:42:14.196Z,100925.16
2023-03-04T03:44:43.124Z,100920.93
2023-03-04T03:47:11.926Z,100922.36
2023-03-04T03:49:40.680Z,100921.08
2023-03-04T03:52:09.598Z,100922.64
2023-03-04T03:54:38.448Z,100922.73
2023-03-04T03:57:07.240Z,100927.00
2023-03-04T03:59:36.180Z,100928.91
2023-03-04T04:02:05.217Z,100930.01
2023-03-04T04:04:34.126Z,100927.70
2023-03-04T04:07:02.887Z,100921.59
2023-03-04T04:09:31.740Z,100917.67
2023-03-04T04:12:00.554Z,100921.80
2023-03-04T04:14:29.383Z,100915.39
2023-03-04T04:16:58.140Z,100916.11
2023-03-04T04:19:27.272Z,100918.84
2023-03-04T04:21:56.210Z,100916.64
2023-03-04T04:24:25.030Z,100913.22
2023-03-04T04:26:53.857Z,100908.13
2023-03-04T04:29:23.337Z,100911.73
2023-03-04T04:31:52.391Z,100908.68
2023-03-04T04:34:21.349Z,100908.86
2023-03-04T04:36:50.137Z,100902.40
2023-03-04T04:39:19.601Z,100905.33
2023-03-04T04:41:49.117Z,100900.73
2023-03-04T04:44:17.960Z,100900.91
2023-03-04T04:46:47.665Z,100902.95
2023-03-04T04:49:16.548Z,100901.60
2023-03-04T04:51:45.524Z,100904.33
2023-03-04T04:54:15.648Z,100903.15
2023-03-04T04:56:44.321Z,100904.16
2023-03-04T04:59:13.383Z,100909.10
2023-03-04T05:01:42.371Z,100908.26
2023-03-04T05:04:12.309Z,100907.73
2023-03-04T05:06:41.412Z,100907.23
2023-03-04T05:09:10.297Z,100907.24
2023-03-04T05:11:39.177Z,100907.11
2023-03-04T05:14:07.977Z,100911.20
2023-03-04T05:16:36.754Z,100913.72
2023-03-04T05:19:05.477Z,100914.23
2023-03-04T05:21:34.334Z,100909.93
2023-03-04T05:24:03.327Z,100910.04
2023-03-04T05:26:32.268Z,100906.91
2023-03-04T05:29:01.241Z,100905.33
2023-03-04T05:31:30.186Z,100908.30
2023-03-04T05:33:59.490Z,100908.50
2023-03-04T05:36:28.468Z,100908.17
2023-03-04T05:38:57.193Z,100911.08
2023-03-04T05:41:26.153Z,100908.21
2023-03-04T05:43:56.681Z,100907.34
2023-03-04T05:46:25.968Z,100907.14
2023-03-04T05:48:56.569Z,100908.77
2023-03-04T05:51:25.484Z,100908.55
2023-03-04T05:53:54.285Z,100906.80
2023-03-04T05:56:23.125Z,100909.49
2023-03-04T05:58:51.960Z,100905.86
2023-03-04T06:01:20.660Z,100901.32
2023-03-04T06:03:49.494Z,100891.98
2023-03-04T06:06:18.667Z,100894.54
2023-03-04T06:08:47.585Z,100894.30
2023-03-04T06:11:16.451Z,100886.89
2023-03-04T06:13:45.649Z,100884.55
2023-03-04T06:16:14.597Z,100884.12
2023-03-04T06:18:43.650Z,100883.70
2023-03-04T06:21:12.604Z,100877.38
2023-03-04T06:23:42.279Z,100874.80
2023-03-04T06:26:15.930Z,100871.76
2023-03-04T08:28:29.633Z,100751.73
2023-03-04T08:30:58.456Z,100749.66
2023-03-04T08:33:30.525Z,100749.83
2023-03-04T08:36:00.839Z,100739.67
2023-03-04T08:38:29.652Z,100734.16
2023-03-04T08:40:58.617Z,100733.62
2023-03-04T08:43:27.528Z,100730.11
2023-03-04T08:45:57.059Z,100724.40
2023-03-04T08:48:26.099Z,100718.85
2023-03-04T08:50:55.179Z,100713.60
2023-03-04T08:53:24.679Z,100713.81
2023-03-04T08:55:53.924Z,100709.71
2023-03-04T08:58:22.709Z,100705.29
2023-03-04T09:00:51.916Z,100698.78
2023-03-04T09:03:21.944Z,100697.49
2023-03-04T09:05:51.166Z,100694.38
2023-03-04T09:08:20.043Z,100686.67
2023-03-04T09:10:54.684Z,100682.92
2023-03-04T09:13:26.463Z,100676.67
2023-03-04T09:15:56.260Z,100677.73
2023-03-04T09:18:26.806Z,100675.16
2023-03-04T09:20:56.694Z,100670.89
2023-03-04T09:23:25.834Z,100665.71
2023-03-04T09:25:54.549Z,100658.05
2023-03-04T09:28:23.425Z,100649.28
2023-03-04T09:30:52.497Z,100648.42
2023-03-04T09:33:21.383Z,100646.34
2023-03-04T09:35:50.239Z,100639.66
2023-03-04T09:38:19.042Z,100633.55
2023-03-04T09:40:49.796Z,100629.38
2023-03-04T09:43:30.155Z,100626.13
2023-03-04T09:46:16.383Z,100620.30
2023-03-04T09:48:51.195Z,100613.16
2023-03-04T09:51:35.688Z,100611.40
2023-03-04T09:54:34.182Z,100609.70
2023-03-04T09:57:38.095Z,100599.53
2023-03-04T10:00:21.210Z,100594.56
2023-03-04T10:03:14.036Z,100591.09
2023-03-04T10:05:55.718Z,100582.44
2023-03-04T10:08:50.272Z,100570.67
2023-03-04T10:11:40.562Z,100567.08
2023-03-04T10:14:46.392Z,100558.35
2023-03-04T10:17:34.979Z,100544.66
2023-03-04T10:20:26.701Z,100540.22
2023-03-04T10:23:15.147Z,100540.12
2023-03-04T10:25:47.134Z,100537.74
2023-03-04T10:28:24.738Z,100532.67
2023-03-04T10:31:10.043Z,100525.11
2023-03-04T10:33:41.117Z,100517.50
2023-03-04T10:36:30.867Z,100517.50
2023-03-04T10:39:20.191Z,100509.39
2023-03-04T10:41:59.196Z,100502.61
2023-03-04T10:44:29.931Z,100495.77
2023-03-04T10:46:59.317Z,100491.56
2023-03-04T10:49:31.346Z,100486.65
2023-03-04T10:52:41.713Z,100487.09
2023-03-04T10:55:25.437Z,100480.41
2023-03-04T10:58:06.696Z,100473.60
2023-03-04T11:00:39.030Z,100471.55
2023-03-04T11:03:30.149Z,100467.44
2023-03-04T11:06:17.679Z,100463.44
2023-03-04T11:08:57.795Z,100459.99
2023-03-04T11:11:38.941Z,100453.19
2023-03-04T11:14:50.844Z,100445.39
2023-03-04T11:17:28.293Z,100434.35
2023-03-04T11:20:40.938Z,100426.59
2023-03-04T11:23:45.760Z,100423.17
2023-03-04T11:26:31.682Z,100410.89
2023-03-04T11:29:04.899Z,100406.48
2023-03-04T11:32:01.625Z,100404.96
2023-03-04T11:34:47.664Z,100393.16
2023-03-04T11:37:48.132Z,100391.63
2023-03-04T11:40:55.172Z,100383.52
2023-03-04T11:43:47.801Z,100379.94
2023-03-04T11:46:48.415Z,100371.48
2023-03-04T11:49:34.042Z,100366.09
2023-03-04T11:52:05.783Z,100361.85
2023-03-04T11:55:08.499Z,100353.91
2023-03-04T11:58:07.946Z,100349.21
2023-03-04T12:00:58.217Z,100345.89
2023-03-04T12:04:04.075Z,100341.75
2023-03-04T12:07:31.835Z,100336.15
2023-03-04T12:10:34.034Z,100327.70
2023-03-04T12:13:48.681Z,100328.96
2023-03-04T12:16:35.117Z,100322.12
2023-03-04T12:19:07.057Z,100318.60
2023-03-04T12:21:56.488Z,100319.15
2023-03-04T12:24:49.478Z,100314.69
2023-03-04T12:28:05.475Z,100312.36
2023-03-04T12:30:51.651Z,100310.13
2023-03-04T12:33:32.096Z,100304.30
2023-03-04T12:36:44.609Z,100296.45
2023-03-04T12:39:51.018Z,100285.95
2023-03-04T12:42:32.539Z,100290.84
2023-03-04T12:45:26.275Z,100288.78
2023-03-04T12:48:19.347Z,100281.88
2023-03-04T12:51:04.107Z,100274.42
2023-03-04T12:54:14.834Z,100274.57
2023-03-04T12:56:58.729Z,100273.71
2023-03-04T12:59:35.235Z,100267.17
2023-03-04T13:02:30.912Z,100256.96
2023-03-04T13:05:32.547Z,100255.32
2023-03-04T13:08:14.691Z,100248.73
2023-03-04T13:10:43.556Z,100241.60
2023-03-04T13:13:42.930Z,100230.09
2023-03-04T13:16:14.476Z,100231.36
2023-03-04T13:18:45.194Z,100225.58
2023-03-04T13:21:23.888Z,100219.49
2023-03-04T13:23:54.315Z,100218.17
2023-03-04T13:26:35.225Z,100206.39
2023-03-04T13:29:14.656Z,100200.97
2023-03-04T13:32:04.885Z,100196.35
2023-03-04T13:34:57.889Z,100200.04
2023-03-04T13:37:37.759Z,100192.55
2023-03-04T13:40:23.498Z,100187.85
2023-03-04T13:42:52.544Z,100184.20
2023-03-04T13:45:36.034Z,100176.55
2023-03-04T13:48:23.448Z,100171.72
2023-03-04T13:50:53.069Z,100165.16
2023-03-04T13:53:45.056Z,100163.38
2023-03-04T13:56:31.869Z,100159.27
2023-03-04T13:59:09.862Z,100152.34
2023-03-04T14:01:41.735Z,100151.09
2023-03-04T14:04:37.622Z,100153.31
2023-03-04T14:07:33.923Z,100150.43
2023-03-04T14:10:12.471Z,100145.11
2023-03-04T14:12:47.874Z,100145.48
2023-03-04T14:15:29.475Z,100147.27
2023-03-04T14:18:06.210Z,100138.57
2023-03-04T14:20:42.911Z,100142.88
2023-03-04T14:23:32.336Z,100141.13
2023-03-04T14:26:14.523Z,100137.38
2023-03-04T14:28:52.747Z,100137.89
2023-03-04T14:31:24.830Z,100132.91
2023-03-04T14:34:02.622Z,100130.92
2023-03-04T14:36:37.217Z,100126.41
2023-03-04T14:39:07.467Z,100122.67
2023-03-04T14:41:41.547Z,100118.39
2023-03-04T14:44:48.502Z,100119.45
2023-03-04T14:47:38.355Z,100115.55
2023-03-04T14:50:20.195Z,100113.96
2023-03-04T14:52:54.562Z,100113.20
2023-03-04T14:55:26.928Z,100114.92
2023-03-04T14:58:24.347Z,100113.08
2023-03-04T15:01:29.675Z,100112.55
2023-03-04T15:04:04.763Z,100111.73
2023-03-04T15:06:55.256Z,100113.21
2023-03-04T15:09:28.021Z,100110.05
2023-03-04T15:12:06.383Z,100108.84
2023-03-04T15:14:52.649Z,100109.04
2023-03-04T15:17:38.303Z,100108.19
2023-03-04T15:20:09.963Z,100113.17
2023-03-04T15:22:44.933Z,100112.82
2023-03-04T15:25:15.561Z,100112.77
2023-03-04T15:27:46.094Z,100112.37
2023-03-04T15:30:36.483Z,100111.16
2023-03-04T15:33:10.558Z,100115.70
2023-03-04T15:35:40.085Z,100110.65
2023-03-04T15:38:13.020Z,100112.89
2023-03-04T15:40:43.428Z,100108.48
2023-03-04T15:43:18.102Z,100107.98
2023-03-04T15:45:49.325Z,100110.10
2023-03-04T15:48:19.638Z,100110.35
2023-03-04T15:51:01.415Z,100106.33
2023-03-04T15:53:48.650Z,100104.89
2023-03-04T15:56:31.209Z,100099.92
2023-03-04T15:59:06.683Z,100099.84
2023-03-04T16:01:35.681Z,100104.54
2023-03-04T16:04:04.683Z,100100.69
2023-03-04T16:06:33.947Z,100110.66
2023-03-04T16:09:07.089Z,100115.30
2023-03-04T16:11:42.368Z,100119.65
2023-03-04T16:14:12.110Z,100121.83
2023-03-04T16:16:44.847Z,100119.92
2023-03-04T16:19:13.753Z,100121.92
2023-03-04T16:21:42.792Z,100122.78
2023-03-04T16:24:18.954Z,100126.54
2023-03-04T16:26:48.472Z,100133.18
2023-03-04T16:29:17.249Z,100134.51
2023-03-04T16:31:46.371Z,100133.60
2023-03-04T16:34:15.331Z,100135.09
2023-03-04T16:36:44.301Z,100135.42
2023-03-04T16:39:26.065Z,100135.98
2023-03-04T16:41:55.351Z,100136.94
2023-03-04T16:44:24.263Z,100140.85
2023-03-04T16:46:53.236Z,100139.65
2023-03-04T16:49:22.186Z,100142.23
2023-03-04T16:51:51.555Z,100141.40
2023-03-04T16:54:30.563Z,100143.73
2023-03-04T16:57:00.300Z,100139.83
2023-03-04T16:59:29.663Z,100143.92
2023-03-04T17:01:58.710Z,100146.55
2023-03-04T17:04:27.830Z,100148.30
2023-03-04T17:06:58.020Z,100148.91
2023-03-04T17:09:26.819Z,100145.95
2023-03-04T17:11:59.561Z,100139.81
2023-03-04T17:14:28.765Z,100142.63
2023-03-04T17:16:57.642Z,100144.95
2023-03-04T17:19:27.327Z,100142.25
2023-03-04T17:22:01.522Z,100140.61
2023-03-04T17:24:31.236Z,100144.90
2023-03-04T17:27:00.071Z,100146.83
2023-03-04T17:29:28.930Z,100145.66
2023-03-04T17:31:57.822Z,100143.95
2023-03-04T17:34:26.723Z,100143.80
2023-03-04T17:36:55.601Z,100144.08
2023-03-04T17:39:24.948Z,100143.79
2023-03-04T17:41:54.161Z,100149.94
2023-03-04T17:44:23.468Z,100152.04
2023-03-04T17:46:52.348Z,100153.08
2023-03-04T17:49:21.815Z,100162.17
2023-03-04T17:51:51.505Z,100160.91
2023-03-04T17:54:20.405Z,100161.01
2023-03-04T17:56:49.249Z,100156.98
2023-03-04T17:59:18.416Z,100159.88
2023-03-04T18:01:47.432Z,100161.08
2023-03-04T18:04:17.064Z,100163.44
2023-03-04T18:06:46.558Z,100163.21
2023-03-04T18:09:15.622Z,100164.85
2023-03-04T18:11:44.551Z,100162.50
2023-03-04T18:14:13.445Z,100168.86
2023-03-04T18:16:42.406Z,100165.76
2023-03-04T18:19:11.211Z,100168.96
2023-03-04T18:21:40.014Z,100171.24
2023-03-04T18:24:09.838Z,100172.10
2023-03-04T18:26:38.528Z,100177.49
2023-03-04T18:29:08.279Z,100179.05
2023-03-04T18:31:37.197Z,100177.14
2023-03-04T18:34:06.652Z,100176.98
2023-03-04T18:36:35.436Z,100178.15
2023-03-04T18:39:05.818Z,100175.96
2023-03-04T18:41:34.707Z,100177.64
2023-03-04T18:44:03.671Z,100177.17
2023-03-04T18:46:48.175Z,100178.23
2023-03-04T18:49:19.247Z,100177.39
2023-03-04T18:51:48.072Z,100181.51
2023-03-04T18:54:16.868Z,100180.52
2023-03-04T18:56:50.816Z,100182.34
2023-03-04T18:59:47.342Z,100182.79
2023-03-04T19:02:25.126Z,100186.45
2023-03-04T19:04:58.101Z,100185.21
2023-03-04T19:07:27.305Z,100187.86
2023-03-04T19:09:56.123Z,100189.31
2023-03-04T19:12:25.001Z,100191.57
2023-03-04T19:14:54.027Z,100194.98
2023-03-04T19:17:22.991Z,100196.68
2023-03-04T19:19:52.287Z,100201.23
2023-03-04T19:22:21.242Z,100200.58
2023-03-04T19:24:50.252Z,100197.92
2023-03-04T19:27:20.194Z,100205.05
2023-03-04T19:29:49.653Z,100211.03
2023-03-04T19:32:19.419Z,100211.30
2023-03-04T19:34:48.743Z,100212.19
2023-03-04T19:37:18.088Z,100213.25
2023-03-04T19:39:49.227Z,100213.50
2023-03-04T19:42:18.595Z,100216.65
2023-03-04T19:44:47.485Z,100213.96
2023-03-04T19:47:16.377Z,100215.27
2023-03-04T19:49:45.365Z,100218.55
2023-03-04T19:52:14.251Z,100222.27
2023-03-04T19:54:42.987Z,100224.30
2023-03-04T19:57:11.903Z,100228.23
2023-03-04T19:59:40.882Z,100228.41
2023-03-04T20:02:10.543Z,100227.77
2023-03-04T20:04:42.728Z,100230.48
2023-03-04T20:07:11.979Z,100231.00
2023-03-04T20:09:41.116Z,100231.61
2023-03-04T20:12:10.399Z,100235.77
2023-03-04T20:14:39.668Z,100234.12
2023-03-04T20:17:10.700Z,100233.78
2023-03-04T20:19:39.591Z,100237.41
2023-03-04T20:22:08.987Z,100235.08
2023-03-04T20:24:37.797Z,100238.05
2023-03-04T20:27:06.561Z,100236.52
2023-03-04T20:29:35.337Z,100235.86
2023-03-04T20:32:04.382Z,100253.14
2023-03-04T20:34:34.397Z,100271.31
2023-03-04T20:37:03.797Z,100273.02
2023-03-04T20:39:33.754Z,100276.67
2023-03-04T20:42:02.592Z,100278.73
2023-03-04T20:44:31.819Z,100279.83
2023-03-04T20:47:00.657Z,100284.81
2023-03-04T20:49:30.138Z,100287.86
2023-03-04T20:52:06.699Z,100292.08
2023-03-04T20:54:37.829Z,100305.34
2023-03-04T20:57:08.266Z,100306.76
2023-03-04T20:59:39.821Z,100312.50
2023-03-04T21:02:14.456Z,100317.59
2023-03-04T21:04:44.225Z,100318.94
2023-03-04T21:07:13.305Z,100316.33
2023-03-04T21:09:42.331Z,100318.56
2023-03-04T21:12:11.721Z,100326.80
2023-03-04T21:14:41.087Z,100333.37
2023-03-04T21:17:10.016Z,100340.40
2023-03-04T21:19:45.326Z,100353.83
2023-03-04T21:22:17.746Z,100358.89
2023-03-04T21:24:48.099Z,100363.31
2023-03-04T21:27:17.187Z,100364.81
2023-03-04T21:29:46.051Z,100370.80
2023-03-04T21:32:24.908Z,100377.31
2023-03-04T21:34:55.880Z,100386.06
2023-03-04T21:37:26.350Z,100394.87
2023-03-04T21:39:55.698Z,100395.30
2023-03-04T21:42:24.467Z,100399.12
2023-03-04T21:44:53.358Z,100404.05
2023-03-04T21:47:22.614Z,100407.00
2023-03-04T21:49:51.559Z,100409.03
2023-03-04T21:52:22.102Z,100416.52
2023-03-04T21:54:51.083Z,100423.42
2023-03-04T21:57:20.302Z,100434.02
2023-03-04T21:59:49.497Z,100436.28
2023-03-04T22:02:22.359Z,100443.65
2023-03-04T22:04:51.394Z,100452.52
2023-03-04T22:07:20.261Z,100455.61
2023-03-04T22:09:49.217Z,100456.88
2023-03-04T22:12:19.542Z,100457.52
2023-03-04T22:14:48.554Z,100460.95
2023-03-04T22:17:17.461Z,100459.65
2023-03-04T22:19:46.335Z,100465.03
2023-03-04T22:22:18.127Z,100468.93
2023-03-04T22:24:47.007Z,100469.05
2023-03-04T22:27:16.029Z,100469.18
2023-03-04T22:29:44.797Z,100471.48
2023-03-04T22:32:17.235Z,100472.17
2023-03-04T22:34:46.177Z,100469.09
2023-03-04T22:37:15.137Z,100471.38
2023-03-04T22:39:43.907Z,100475.66
2023-03-04T22:42:12.699Z,100477.27
2023-03-04T22:44:41.668Z,100476.64
2023-03-04T22:47:10.584Z,100480.21
2023-03-04T22:49:41.805Z,100479.02
2023-03-04T22:52:10.671Z,100481.75
2023-03-04T22:54:39.462Z,100482.31
2023-03-04T22:57:08.233Z,100488.48
2023-03-04T22:59:37.088Z,100487.90
2023-03-04T23:02:06.274Z,100491.80
2023-03-04T23:04:35.123Z,100496.11
2023-03-04T23:07:04.300Z,100495.30
2023-03-04T23:09:33.400Z,100498.15
2023-03-04T23:12:02.167Z,100498.33
2023-03-04T23:14:31.563Z,100502.19
2023-03-04T23:17:01.279Z,100503.24
2023-03-04T23:19:30.364Z,100504.29
2023-03-04T23:21:59.494Z,100504.81
2023-03-04T23:24:28.424Z,100504.63
2023-03-04T23:26:57.367Z,100511.10
2023-03-04T23:29:26.220Z,100518.30
2023-03-04T23:31:55.003Z,100519.55
2023-03-04T23:34:23.989Z,100519.69
2023-03-04T23:36:52.968Z,100521.77
2023-03-04T23:39:21.799Z,100518.46
2023-03-04T23:41:50.682Z,100520.27
2023-03-04T23:44:19.390Z,100517.57
2023-03-04T23:46:48.210Z,100518.37
2023-03-04T23:49:18.124Z,100520.45
2023-03-04T23:51:47.273Z,100523.96
2023-03-04T23:54:16.102Z,100529.00
2023-03-04T23:56:45.162Z,100526.83
2023-03-04T23:59:14.478Z,100523.33
